sensor_id;sensor_type;location;lat;lon;timestamp;P1;durP1;ratioP1;P2;durP2;ratioP2
21315;SDS011;10817;55.820;13.030;2022-10-23T00:01:18;129.07;;;39.33;;
21315;SDS011;10817;55.820;13.030;2022-10-23T00:03:49;139.35;;;40.83;;
21315;SDS011;10817;55.820;13.030;2022-10-23T00:06:17;149.00;;;40.13;;
21315;SDS011;10817;55.820;13.030;2022-10-23T00:08:44;148.00;;;40.05;;
21315;SDS011;10817;55.820;13.030;2022-10-23T00:11:14;147.63;;;40.80;;
21315;SDS011;10817;55.820;13.030;2022-10-23T00:13:42;150.32;;;39.00;;
21315;SDS011;10817;55.820;13.030;2022-10-23T00:16:09;185.13;;;41.92;;
21315;SDS011;10817;55.820;13.030;2022-10-23T00:18:37;170.65;;;39.78;;
21315;SDS011;10817;55.820;13.030;2022-10-23T00:21:05;166.27;;;39.92;;
21315;SDS011;10817;55.820;13.030;2022-10-23T00:23:35;170.05;;;40.35;;
21315;SDS011;10817;55.820;13.030;2022-10-23T00:26:02;202.93;;;42.28;;
21315;SDS011;10817;55.820;13.030;2022-10-23T00:28:31;228.50;;;42.50;;
21315;SDS011;10817;55.820;13.030;2022-10-23T00:31:00;211.20;;;42.83;;
21315;SDS011;10817;55.820;13.030;2022-10-23T00:33:27;231.07;;;43.17;;
21315;SDS011;10817;55.820;13.030;2022-10-23T00:35:54;276.05;;;47.13;;
21315;SDS011;10817;55.820;13.030;2022-10-23T00:38:21;249.80;;;46.97;;
21315;SDS011;10817;55.820;13.030;2022-10-23T00:40:48;277.17;;;47.22;;
21315;SDS011;10817;55.820;13.030;2022-10-23T00:43:16;352.33;;;46.42;;
21315;SDS011;10817;55.820;13.030;2022-10-23T00:45:45;272.10;;;45.45;;
21315;SDS011;10817;55.820;13.030;2022-10-23T00:48:12;232.23;;;44.63;;
21315;SDS011;10817;55.820;13.030;2022-10-23T00:50:39;252.57;;;46.00;;
21315;SDS011;10817;55.820;13.030;2022-10-23T00:53:07;272.75;;;45.17;;
21315;SDS011;10817;55.820;13.030;2022-10-23T00:55:37;289.15;;;45.75;;
21315;SDS011;10817;55.820;13.030;2022-10-23T00:58:10;220.00;;;44.85;;
21315;SDS011;10817;55.820;13.030;2022-10-23T01:00:42;221.93;;;42.85;;
21315;SDS011;10817;55.820;13.030;2022-10-23T01:03:12;184.35;;;40.47;;
21315;SDS011;10817;55.820;13.030;2022-10-23T01:05:43;189.63;;;40.75;;
21315;SDS011;10817;55.820;13.030;2022-10-23T01:08:16;168.93;;;39.03;;
21315;SDS011;10817;55.820;13.030;2022-10-23T01:10:50;148.85;;;35.05;;
21315;SDS011;10817;55.820;13.030;2022-10-23T01:13:30;143.35;;;33.63;;
21315;SDS011;10817;55.820;13.030;2022-10-23T01:16:07;140.63;;;33.50;;
21315;SDS011;10817;55.820;13.030;2022-10-23T01:18:40;115.90;;;30.35;;
21315;SDS011;10817;55.820;13.030;2022-10-23T01:21:12;108.07;;;29.80;;
21315;SDS011;10817;55.820;13.030;2022-10-23T01:23:47;116.55;;;30.02;;
21315;SDS011;10817;55.820;13.030;2022-10-23T01:29:24;109.45;;;28.67;;
21315;SDS011;10817;55.820;13.030;2022-10-23T01:31:57;95.85;;;29.20;;
21315;SDS011;10817;55.820;13.030;2022-10-23T01:34:34;102.22;;;28.55;;
21315;SDS011;10817;55.820;13.030;2022-10-23T01:37:10;91.95;;;28.85;;
21315;SDS011;10817;55.820;13.030;2022-10-23T01:39:43;94.72;;;30.27;;
21315;SDS011;10817;55.820;13.030;2022-10-23T01:42:15;89.10;;;29.42;;
21315;SDS011;10817;55.820;13.030;2022-10-23T01:44:46;90.45;;;29.70;;
21315;SDS011;10817;55.820;13.030;2022-10-23T01:47:18;93.20;;;28.70;;
21315;SDS011;10817;55.820;13.030;2022-10-23T01:50:00;104.93;;;30.63;;
21315;SDS011;10817;55.820;13.030;2022-10-23T01:52:29;99.00;;;29.42;;
21315;SDS011;10817;55.820;13.030;2022-10-23T01:54:58;97.43;;;29.85;;
21315;SDS011;10817;55.820;13.030;2022-10-23T01:57:30;101.65;;;31.65;;
21315;SDS011;10817;55.820;13.030;2022-10-23T02:00:00;95.88;;;31.02;;
21315;SDS011;10817;55.820;13.030;2022-10-23T02:02:35;97.18;;;31.55;;
21315;SDS011;10817;55.820;13.030;2022-10-23T02:05:05;96.20;;;31.27;;
21315;SDS011;10817;55.820;13.030;2022-10-23T02:07:36;100.45;;;31.20;;
21315;SDS011;10817;55.820;13.030;2022-10-23T02:10:04;95.45;;;31.63;;
21315;SDS011;10817;55.820;13.030;2022-10-23T02:12:35;93.60;;;31.35;;
21315;SDS011;10817;55.820;13.030;2022-10-23T02:15:15;93.00;;;31.55;;
21315;SDS011;10817;55.820;13.030;2022-10-23T02:17:50;89.15;;;31.40;;
21315;SDS011;10817;55.820;13.030;2022-10-23T02:20:26;86.93;;;31.23;;
21315;SDS011;10817;55.820;13.030;2022-10-23T02:23:02;87.68;;;31.33;;
21315;SDS011;10817;55.820;13.030;2022-10-23T02:25:35;94.47;;;32.55;;
21315;SDS011;10817;55.820;13.030;2022-10-23T02:28:10;97.63;;;32.25;;
21315;SDS011;10817;55.820;13.030;2022-10-23T02:30:45;92.57;;;32.30;;
21315;SDS011;10817;55.820;13.030;2022-10-23T02:33:15;83.78;;;30.15;;
21315;SDS011;10817;55.820;13.030;2022-10-23T02:35:44;91.78;;;32.45;;
21315;SDS011;10817;55.820;13.030;2022-10-23T02:38:27;93.80;;;32.60;;
21315;SDS011;10817;55.820;13.030;2022-10-23T02:40:57;82.00;;;29.70;;
21315;SDS011;10817;55.820;13.030;2022-10-23T02:43:35;96.53;;;33.63;;
21315;SDS011;10817;55.820;13.030;2022-10-23T02:46:12;86.07;;;31.98;;
21315;SDS011;10817;55.820;13.030;2022-10-23T02:48:46;84.68;;;30.55;;
21315;SDS011;10817;55.820;13.030;2022-10-23T02:51:17;97.30;;;33.22;;
21315;SDS011;10817;55.820;13.030;2022-10-23T02:53:53;93.72;;;31.88;;
21315;SDS011;10817;55.820;13.030;2022-10-23T02:56:29;82.18;;;31.08;;
21315;SDS011;10817;55.820;13.030;2022-10-23T02:59:03;95.68;;;32.13;;
21315;SDS011;10817;55.820;13.030;2022-10-23T03:01:40;76.97;;;30.83;;
21315;SDS011;10817;55.820;13.030;2022-10-23T03:04:13;71.70;;;29.35;;
21315;SDS011;10817;55.820;13.030;2022-10-23T03:06:42;78.35;;;28.50;;
21315;SDS011;10817;55.820;13.030;2022-10-23T03:09:14;68.22;;;27.02;;
21315;SDS011;10817;55.820;13.030;2022-10-23T03:11:41;71.03;;;26.00;;
21315;SDS011;10817;55.820;13.030;2022-10-23T03:14:08;64.32;;;26.52;;
21315;SDS011;10817;55.820;13.030;2022-10-23T03:16:39;60.00;;;26.10;;
21315;SDS011;10817;55.820;13.030;2022-10-23T03:19:07;64.10;;;26.15;;
21315;SDS011;10817;55.820;13.030;2022-10-23T03:21:34;49.60;;;22.83;;
21315;SDS011;10817;55.820;13.030;2022-10-23T03:24:05;50.13;;;22.70;;
21315;SDS011;10817;55.820;13.030;2022-10-23T03:26:38;54.10;;;22.17;;
21315;SDS011;10817;55.820;13.030;2022-10-23T03:29:05;42.42;;;20.40;;
21315;SDS011;10817;55.820;13.030;2022-10-23T03:31:40;46.40;;;21.02;;
21315;SDS011;10817;55.820;13.030;2022-10-23T03:34:07;45.38;;;20.80;;
21315;SDS011;10817;55.820;13.030;2022-10-23T03:36:38;41.83;;;20.92;;
21315;SDS011;10817;55.820;13.030;2022-10-23T03:39:06;49.30;;;21.73;;
21315;SDS011;10817;55.820;13.030;2022-10-23T03:41:33;45.35;;;21.35;;
21315;SDS011;10817;55.820;13.030;2022-10-23T03:44:01;43.30;;;21.23;;
21315;SDS011;10817;55.820;13.030;2022-10-23T03:46:28;41.50;;;21.50;;
21315;SDS011;10817;55.820;13.030;2022-10-23T03:48:57;45.15;;;21.30;;
21315;SDS011;10817;55.820;13.030;2022-10-23T03:51:24;37.90;;;20.13;;
21315;SDS011;10817;55.820;13.030;2022-10-23T03:53:51;45.40;;;20.88;;
21315;SDS011;10817;55.820;13.030;2022-10-23T03:56:19;48.65;;;20.80;;
21315;SDS011;10817;55.820;13.030;2022-10-23T03:58:46;40.95;;;19.40;;
21315;SDS011;10817;55.820;13.030;2022-10-23T04:01:14;43.78;;;19.10;;
21315;SDS011;10817;55.820;13.030;2022-10-23T04:03:41;41.63;;;18.40;;
21315;SDS011;10817;55.820;13.030;2022-10-23T04:06:09;41.38;;;18.50;;
21315;SDS011;10817;55.820;13.030;2022-10-23T04:08:36;42.45;;;17.77;;
21315;SDS011;10817;55.820;13.030;2022-10-23T04:11:10;32.38;;;16.55;;
21315;SDS011;10817;55.820;13.030;2022-10-23T04:13:43;32.05;;;16.20;;
21315;SDS011;10817;55.820;13.030;2022-10-23T04:16:10;37.35;;;16.50;;
21315;SDS011;10817;55.820;13.030;2022-10-23T04:18:38;36.45;;;16.98;;
21315;SDS011;10817;55.820;13.030;2022-10-23T04:21:08;34.17;;;16.67;;
21315;SDS011;10817;55.820;13.030;2022-10-23T04:23:37;27.25;;;15.40;;
21315;SDS011;10817;55.820;13.030;2022-10-23T04:26:10;39.00;;;15.60;;
21315;SDS011;10817;55.820;13.030;2022-10-23T04:28:37;34.15;;;15.40;;
21315;SDS011;10817;55.820;13.030;2022-10-23T04:31:06;31.60;;;15.55;;
21315;SDS011;10817;55.820;13.030;2022-10-23T04:33:33;34.92;;;15.25;;
21315;SDS011;10817;55.820;13.030;2022-10-23T04:36:00;31.92;;;14.65;;
21315;SDS011;10817;55.820;13.030;2022-10-23T04:38:28;32.92;;;14.05;;
21315;SDS011;10817;55.820;13.030;2022-10-23T04:40:55;37.10;;;15.52;;
21315;SDS011;10817;55.820;13.030;2022-10-23T04:43:23;28.90;;;14.77;;
21315;SDS011;10817;55.820;13.030;2022-10-23T04:45:50;41.33;;;14.82;;
21315;SDS011;10817;55.820;13.030;2022-10-23T04:48:18;36.97;;;15.80;;
21315;SDS011;10817;55.820;13.030;2022-10-23T04:51:05;37.70;;;14.90;;
21315;SDS011;10817;55.820;13.030;2022-10-23T04:53:52;35.88;;;14.02;;
21315;SDS011;10817;55.820;13.030;2022-10-23T04:56:42;28.33;;;13.88;;
21315;SDS011;10817;55.820;13.030;2022-10-23T04:59:16;35.55;;;12.05;;
21315;SDS011;10817;55.820;13.030;2022-10-23T05:01:43;28.08;;;11.77;;
21315;SDS011;10817;55.820;13.030;2022-10-23T05:04:12;27.17;;;11.20;;
21315;SDS011;10817;55.820;13.030;2022-10-23T05:07:11;27.58;;;11.52;;
21315;SDS011;10817;55.820;13.030;2022-10-23T05:09:49;27.50;;;11.40;;
21315;SDS011;10817;55.820;13.030;2022-10-23T05:12:48;25.15;;;10.73;;
21315;SDS011;10817;55.820;13.030;2022-10-23T05:15:15;29.92;;;10.90;;
21315;SDS011;10817;55.820;13.030;2022-10-23T05:17:42;22.63;;;10.82;;
21315;SDS011;10817;55.820;13.030;2022-10-23T05:20:15;29.38;;;10.32;;
21315;SDS011;10817;55.820;13.030;2022-10-23T05:22:45;25.20;;;10.85;;
21315;SDS011;10817;55.820;13.030;2022-10-23T05:25:20;34.20;;;10.20;;
21315;SDS011;10817;55.820;13.030;2022-10-23T05:27:54;23.40;;;8.73;;
21315;SDS011;10817;55.820;13.030;2022-10-23T05:30:21;20.83;;;8.52;;
21315;SDS011;10817;55.820;13.030;2022-10-23T05:32:48;31.10;;;8.73;;
21315;SDS011;10817;55.820;13.030;2022-10-23T05:35:20;28.77;;;8.85;;
21315;SDS011;10817;55.820;13.030;2022-10-23T05:37:50;25.65;;;8.85;;
21315;SDS011;10817;55.820;13.030;2022-10-23T05:40:23;26.98;;;9.13;;
21315;SDS011;10817;55.820;13.030;2022-10-23T05:42:57;33.42;;;9.80;;
21315;SDS011;10817;55.820;13.030;2022-10-23T05:45:34;37.38;;;9.60;;
21315;SDS011;10817;55.820;13.030;2022-10-23T05:48:20;19.48;;;8.57;;
21315;SDS011;10817;55.820;13.030;2022-10-23T05:51:25;26.67;;;9.35;;
21315;SDS011;10817;55.820;13.030;2022-10-23T05:54:12;27.92;;;9.15;;
21315;SDS011;10817;55.820;13.030;2022-10-23T05:56:48;29.63;;;10.30;;
21315;SDS011;10817;55.820;13.030;2022-10-23T05:59:21;25.63;;;8.77;;
21315;SDS011;10817;55.820;13.030;2022-10-23T06:02:08;25.63;;;8.45;;
21315;SDS011;10817;55.820;13.030;2022-10-23T06:04:47;39.47;;;9.18;;
21315;SDS011;10817;55.820;13.030;2022-10-23T06:07:24;20.65;;;7.43;;
21315;SDS011;10817;55.820;13.030;2022-10-23T06:09:53;29.55;;;8.30;;
21315;SDS011;10817;55.820;13.030;2022-10-23T06:12:21;23.50;;;7.15;;
21315;SDS011;10817;55.820;13.030;2022-10-23T06:14:51;21.95;;;6.95;;
21315;SDS011;10817;55.820;13.030;2022-10-23T06:17:20;36.05;;;7.57;;
21315;SDS011;10817;55.820;13.030;2022-10-23T06:19:47;26.33;;;6.85;;
21315;SDS011;10817;55.820;13.030;2022-10-23T06:22:16;29.55;;;6.85;;
21315;SDS011;10817;55.820;13.030;2022-10-23T06:24:57;23.13;;;6.53;;
21315;SDS011;10817;55.820;13.030;2022-10-23T06:27:27;29.15;;;7.15;;
21315;SDS011;10817;55.820;13.030;2022-10-23T06:29:54;23.33;;;6.88;;
21315;SDS011;10817;55.820;13.030;2022-10-23T06:32:21;36.83;;;7.82;;
21315;SDS011;10817;55.820;13.030;2022-10-23T06:35:10;24.58;;;7.32;;
21315;SDS011;10817;55.820;13.030;2022-10-23T06:37:37;24.10;;;8.13;;
21315;SDS011;10817;55.820;13.030;2022-10-23T06:40:11;24.55;;;8.45;;
21315;SDS011;10817;55.820;13.030;2022-10-23T06:43:02;26.70;;;8.30;;
21315;SDS011;10817;55.820;13.030;2022-10-23T06:45:56;27.83;;;8.52;;
21315;SDS011;10817;55.820;13.030;2022-10-23T06:48:44;31.67;;;9.73;;
21315;SDS011;10817;55.820;13.030;2022-10-23T06:51:19;39.40;;;10.60;;
21315;SDS011;10817;55.820;13.030;2022-10-23T06:53:46;37.90;;;9.90;;
21315;SDS011;10817;55.820;13.030;2022-10-23T06:56:33;31.30;;;9.07;;
21315;SDS011;10817;55.820;13.030;2022-10-23T06:59:06;27.98;;;9.98;;
21315;SDS011;10817;55.820;13.030;2022-10-23T07:01:35;28.60;;;10.50;;
21315;SDS011;10817;55.820;13.030;2022-10-23T07:04:04;30.75;;;10.35;;
21315;SDS011;10817;55.820;13.030;2022-10-23T07:06:31;33.63;;;9.88;;
21315;SDS011;10817;55.820;13.030;2022-10-23T07:08:58;34.45;;;9.20;;
21315;SDS011;10817;55.820;13.030;2022-10-23T07:11:44;35.65;;;9.75;;
21315;SDS011;10817;55.820;13.030;2022-10-23T07:14:12;25.58;;;8.50;;
21315;SDS011;10817;55.820;13.030;2022-10-23T07:16:40;30.30;;;8.75;;
21315;SDS011;10817;55.820;13.030;2022-10-23T07:19:08;28.90;;;8.32;;
21315;SDS011;10817;55.820;13.030;2022-10-23T07:21:55;28.60;;;8.07;;
21315;SDS011;10817;55.820;13.030;2022-10-23T07:24:37;23.10;;;7.93;;
21315;SDS011;10817;55.820;13.030;2022-10-23T07:27:25;22.63;;;7.30;;
21315;SDS011;10817;55.820;13.030;2022-10-23T07:29:57;28.15;;;8.32;;
21315;SDS011;10817;55.820;13.030;2022-10-23T07:32:28;29.38;;;7.82;;
21315;SDS011;10817;55.820;13.030;2022-10-23T07:35:15;26.48;;;7.53;;
21315;SDS011;10817;55.820;13.030;2022-10-23T07:37:55;25.00;;;7.65;;
21315;SDS011;10817;55.820;13.030;2022-10-23T07:40:28;28.40;;;7.30;;
21315;SDS011;10817;55.820;13.030;2022-10-23T07:42:55;33.78;;;8.38;;
21315;SDS011;10817;55.820;13.030;2022-10-23T07:45:25;27.83;;;7.32;;
21315;SDS011;10817;55.820;13.030;2022-10-23T07:47:53;25.02;;;7.75;;
21315;SDS011;10817;55.820;13.030;2022-10-23T07:50:31;25.15;;;7.45;;
21315;SDS011;10817;55.820;13.030;2022-10-23T07:52:58;25.33;;;7.57;;
21315;SDS011;10817;55.820;13.030;2022-10-23T07:55:35;20.15;;;7.30;;
21315;SDS011;10817;55.820;13.030;2022-10-23T07:58:09;24.33;;;7.68;;
21315;SDS011;10817;55.820;13.030;2022-10-23T08:00:42;18.20;;;6.70;;
21315;SDS011;10817;55.820;13.030;2022-10-23T08:03:18;25.48;;;6.90;;
21315;SDS011;10817;55.820;13.030;2022-10-23T08:05:46;22.60;;;6.60;;
21315;SDS011;10817;55.820;13.030;2022-10-23T08:08:13;24.90;;;6.35;;
21315;SDS011;10817;55.820;13.030;2022-10-23T08:10:44;22.05;;;5.75;;
21315;SDS011;10817;55.820;13.030;2022-10-23T08:13:17;18.50;;;5.72;;
21315;SDS011;10817;55.820;13.030;2022-10-23T08:16:07;20.63;;;5.75;;
21315;SDS011;10817;55.820;13.030;2022-10-23T08:18:54;20.98;;;5.65;;
21315;SDS011;10817;55.820;13.030;2022-10-23T08:21:24;18.50;;;5.10;;
21315;SDS011;10817;55.820;13.030;2022-10-23T08:23:52;28.55;;;5.72;;
21315;SDS011;10817;55.820;13.030;2022-10-23T08:26:20;12.65;;;5.15;;
21315;SDS011;10817;55.820;13.030;2022-10-23T08:28:48;15.18;;;5.18;;
21315;SDS011;10817;55.820;13.030;2022-10-23T08:31:18;19.08;;;5.03;;
21315;SDS011;10817;55.820;13.030;2022-10-23T08:34:16;15.93;;;4.25;;
21315;SDS011;10817;55.820;13.030;2022-10-23T08:36:47;13.10;;;4.60;;
21315;SDS011;10817;55.820;13.030;2022-10-23T08:39:14;13.55;;;3.90;;
21315;SDS011;10817;55.820;13.030;2022-10-23T08:42:14;14.68;;;3.63;;
21315;SDS011;10817;55.820;13.030;2022-10-23T08:44:49;12.15;;;3.30;;
21315;SDS011;10817;55.820;13.030;2022-10-23T08:47:27;17.40;;;3.70;;
21315;SDS011;10817;55.820;13.030;2022-10-23T08:50:21;12.00;;;2.83;;
21315;SDS011;10817;55.820;13.030;2022-10-23T08:52:51;13.55;;;2.38;;
21315;SDS011;10817;55.820;13.030;2022-10-23T08:55:25;8.35;;;2.22;;
21315;SDS011;10817;55.820;13.030;2022-10-23T08:57:57;17.15;;;2.53;;
21315;SDS011;10817;55.820;13.030;2022-10-23T09:00:29;8.45;;;2.17;;
21315;SDS011;10817;55.820;13.030;2022-10-23T09:02:59;12.52;;;2.40;;
21315;SDS011;10817;55.820;13.030;2022-10-23T09:05:30;10.82;;;2.38;;
21315;SDS011;10817;55.820;13.030;2022-10-23T09:08:07;9.32;;;2.28;;
21315;SDS011;10817;55.820;13.030;2022-10-23T09:10:54;8.98;;;2.38;;
21315;SDS011;10817;55.820;13.030;2022-10-23T09:16:18;12.68;;;2.22;;
21315;SDS011;10817;55.820;13.030;2022-10-23T09:18:56;11.25;;;2.35;;
21315;SDS011;10817;55.820;13.030;2022-10-23T09:21:24;10.20;;;2.30;;
21315;SDS011;10817;55.820;13.030;2022-10-23T09:23:52;17.05;;;2.88;;
21315;SDS011;10817;55.820;13.030;2022-10-23T09:26:20;11.23;;;2.05;;
21315;SDS011;10817;55.820;13.030;2022-10-23T09:28:48;11.80;;;2.42;;
21315;SDS011;10817;55.820;13.030;2022-10-23T09:31:19;7.75;;;2.03;;
21315;SDS011;10817;55.820;13.030;2022-10-23T09:33:53;12.30;;;2.50;;
21315;SDS011;10817;55.820;13.030;2022-10-23T09:36:25;18.75;;;2.78;;
21315;SDS011;10817;55.820;13.030;2022-10-23T09:38:53;18.27;;;3.05;;
21315;SDS011;10817;55.820;13.030;2022-10-23T09:41:25;11.27;;;2.53;;
21315;SDS011;10817;55.820;13.030;2022-10-23T09:43:58;10.52;;;2.15;;
21315;SDS011;10817;55.820;13.030;2022-10-23T09:46:35;13.68;;;2.72;;
21315;SDS011;10817;55.820;13.030;2022-10-23T09:49:05;11.43;;;2.83;;
21315;SDS011;10817;55.820;13.030;2022-10-23T09:51:40;12.75;;;3.70;;
21315;SDS011;10817;55.820;13.030;2022-10-23T09:54:18;16.33;;;3.72;;
21315;SDS011;10817;55.820;13.030;2022-10-23T09:56:49;15.60;;;3.95;;
21315;SDS011;10817;55.820;13.030;2022-10-23T09:59:20;21.52;;;3.35;;
21315;SDS011;10817;55.820;13.030;2022-10-23T10:01:51;13.98;;;3.25;;
21315;SDS011;10817;55.820;13.030;2022-10-23T10:04:40;11.10;;;2.83;;
21315;SDS011;10817;55.820;13.030;2022-10-23T10:07:14;11.48;;;2.83;;
21315;SDS011;10817;55.820;13.030;2022-10-23T10:09:45;10.45;;;3.13;;
21315;SDS011;10817;55.820;13.030;2022-10-23T10:15:16;13.90;;;2.97;;
21315;SDS011;10817;55.820;13.030;2022-10-23T10:17:53;15.32;;;4.15;;
21315;SDS011;10817;55.820;13.030;2022-10-23T10:20:42;16.13;;;3.45;;
21315;SDS011;10817;55.820;13.030;2022-10-23T10:23:22;14.65;;;3.53;;
21315;SDS011;10817;55.820;13.030;2022-10-23T10:25:58;14.23;;;3.67;;
21315;SDS011;10817;55.820;13.030;2022-10-23T10:28:37;18.35;;;3.08;;
21315;SDS011;10817;55.820;13.030;2022-10-23T10:31:14;14.65;;;3.50;;
21315;SDS011;10817;55.820;13.030;2022-10-23T10:33:53;19.85;;;4.53;;
21315;SDS011;10817;55.820;13.030;2022-10-23T10:36:33;20.65;;;4.45;;
21315;SDS011;10817;55.820;13.030;2022-10-23T10:39:10;13.57;;;3.97;;
21315;SDS011;10817;55.820;13.030;2022-10-23T10:41:45;19.73;;;4.90;;
21315;SDS011;10817;55.820;13.030;2022-10-23T10:47:12;17.25;;;4.38;;
21315;SDS011;10817;55.820;13.030;2022-10-23T10:49:47;23.60;;;4.63;;
21315;SDS011;10817;55.820;13.030;2022-10-23T10:52:43;15.73;;;4.35;;
21315;SDS011;10817;55.820;13.030;2022-10-23T10:55:20;17.05;;;5.00;;
21315;SDS011;10817;55.820;13.030;2022-10-23T10:57:54;20.05;;;4.40;;
21315;SDS011;10817;55.820;13.030;2022-10-23T11:00:24;8.60;;;3.10;;
21315;SDS011;10817;55.820;13.030;2022-10-23T11:02:54;14.07;;;3.85;;
21315;SDS011;10817;55.820;13.030;2022-10-23T11:05:28;19.58;;;3.47;;
21315;SDS011;10817;55.820;13.030;2022-10-23T11:08:01;11.20;;;2.90;;
21315;SDS011;10817;55.820;13.030;2022-10-23T11:10:32;16.92;;;3.78;;
21315;SDS011;10817;55.820;13.030;2022-10-23T11:13:03;7.88;;;2.65;;
21315;SDS011;10817;55.820;13.030;2022-10-23T11:15:33;18.33;;;2.80;;
21315;SDS011;10817;55.820;13.030;2022-10-23T11:18:11;13.63;;;2.97;;
21315;SDS011;10817;55.820;13.030;2022-10-23T11:20:48;16.80;;;2.88;;
21315;SDS011;10817;55.820;13.030;2022-10-23T11:23:39;12.40;;;2.70;;
21315;SDS011;10817;55.820;13.030;2022-10-23T11:26:26;8.80;;;2.10;;
21315;SDS011;10817;55.820;13.030;2022-10-23T11:29:23;12.38;;;2.67;;
21315;SDS011;10817;55.820;13.030;2022-10-23T11:32:20;14.13;;;3.42;;
21315;SDS011;10817;55.820;13.030;2022-10-23T11:35:09;10.88;;;2.70;;
21315;SDS011;10817;55.820;13.030;2022-10-23T11:37:55;12.15;;;2.78;;
21315;SDS011;10817;55.820;13.030;2022-10-23T11:40:25;8.45;;;2.60;;
21315;SDS011;10817;55.820;13.030;2022-10-23T11:42:54;13.05;;;2.58;;
21315;SDS011;10817;55.820;13.030;2022-10-23T11:45:25;10.30;;;2.58;;
21315;SDS011;10817;55.820;13.030;2022-10-23T11:47:57;11.82;;;2.70;;
21315;SDS011;10817;55.820;13.030;2022-10-23T11:50:27;11.85;;;2.72;;
21315;SDS011;10817;55.820;13.030;2022-10-23T11:52:59;12.32;;;2.75;;
21315;SDS011;10817;55.820;13.030;2022-10-23T11:55:30;12.05;;;2.65;;
21315;SDS011;10817;55.820;13.030;2022-10-23T11:58:06;7.90;;;2.22;;
21315;SDS011;10817;55.820;13.030;2022-10-23T12:03:47;10.27;;;2.55;;
21315;SDS011;10817;55.820;13.030;2022-10-23T12:06:20;10.55;;;2.40;;
21315;SDS011;10817;55.820;13.030;2022-10-23T12:08:51;7.97;;;2.35;;
21315;SDS011;10817;55.820;13.030;2022-10-23T12:11:25;10.60;;;3.10;;
21315;SDS011;10817;55.820;13.030;2022-10-23T12:13:54;11.38;;;2.80;;
21315;SDS011;10817;55.820;13.030;2022-10-23T12:16:32;11.10;;;2.80;;
21315;SDS011;10817;55.820;13.030;2022-10-23T12:19:00;14.27;;;3.22;;
21315;SDS011;10817;55.820;13.030;2022-10-23T12:21:44;13.95;;;3.10;;
21315;SDS011;10817;55.820;13.030;2022-10-23T12:24:16;13.88;;;2.80;;
21315;SDS011;10817;55.820;13.030;2022-10-23T12:27:09;10.40;;;3.15;;
21315;SDS011;10817;55.820;13.030;2022-10-23T12:29:47;16.50;;;3.15;;
21315;SDS011;10817;55.820;13.030;2022-10-23T12:32:41;19.02;;;3.03;;
21315;SDS011;10817;55.820;13.030;2022-10-23T12:35:33;14.50;;;4.60;;
21315;SDS011;10817;55.820;13.030;2022-10-23T12:38:14;15.10;;;2.67;;
21315;SDS011;10817;55.820;13.030;2022-10-23T12:40:44;10.93;;;2.95;;
21315;SDS011;10817;55.820;13.030;2022-10-23T12:43:20;9.85;;;2.38;;
21315;SDS011;10817;55.820;13.030;2022-10-23T12:45:51;15.05;;;3.30;;
21315;SDS011;10817;55.820;13.030;2022-10-23T12:48:19;11.40;;;3.28;;
21315;SDS011;10817;55.820;13.030;2022-10-23T12:50:48;11.00;;;2.83;;
21315;SDS011;10817;55.820;13.030;2022-10-23T12:53:17;13.77;;;2.65;;
21315;SDS011;10817;55.820;13.030;2022-10-23T12:55:46;15.50;;;3.00;;
21315;SDS011;10817;55.820;13.030;2022-10-23T12:58:17;15.23;;;4.63;;
21315;SDS011;10817;55.820;13.030;2022-10-23T13:00:52;11.52;;;3.53;;
21315;SDS011;10817;55.820;13.030;2022-10-23T13:03:21;14.73;;;3.00;;
21315;SDS011;10817;55.820;13.030;2022-10-23T13:05:50;10.05;;;2.72;;
21315;SDS011;10817;55.820;13.030;2022-10-23T13:08:19;12.75;;;2.83;;
21315;SDS011;10817;55.820;13.030;2022-10-23T13:11:09;13.25;;;2.58;;
21315;SDS011;10817;55.820;13.030;2022-10-23T13:13:41;18.30;;;3.55;;
21315;SDS011;10817;55.820;13.030;2022-10-23T13:16:12;12.02;;;2.97;;
21315;SDS011;10817;55.820;13.030;2022-10-23T13:18:40;15.02;;;2.75;;
21315;SDS011;10817;55.820;13.030;2022-10-23T13:21:09;12.80;;;3.30;;
21315;SDS011;10817;55.820;13.030;2022-10-23T13:23:42;9.20;;;2.47;;
21315;SDS011;10817;55.820;13.030;2022-10-23T13:26:22;15.35;;;3.13;;
21315;SDS011;10817;55.820;13.030;2022-10-23T13:28:55;11.07;;;2.70;;
21315;SDS011;10817;55.820;13.030;2022-10-23T13:31:24;15.95;;;4.20;;
21315;SDS011;10817;55.820;13.030;2022-10-23T13:34:16;11.25;;;3.38;;
21315;SDS011;10817;55.820;13.030;2022-10-23T13:36:56;16.52;;;3.30;;
21315;SDS011;10817;55.820;13.030;2022-10-23T13:39:26;16.15;;;3.55;;
21315;SDS011;10817;55.820;13.030;2022-10-23T13:41:57;12.75;;;3.55;;
21315;SDS011;10817;55.820;13.030;2022-10-23T13:44:32;13.15;;;3.38;;
21315;SDS011;10817;55.820;13.030;2022-10-23T13:47:01;18.73;;;3.60;;
21315;SDS011;10817;55.820;13.030;2022-10-23T13:49:30;14.63;;;3.13;;
21315;SDS011;10817;55.820;13.030;2022-10-23T13:51:58;15.48;;;3.72;;
21315;SDS011;10817;55.820;13.030;2022-10-23T13:54:26;20.08;;;3.35;;
21315;SDS011;10817;55.820;13.030;2022-10-23T13:56:54;9.55;;;3.03;;
21315;SDS011;10817;55.820;13.030;2022-10-23T13:59:22;22.50;;;4.30;;
21315;SDS011;10817;55.820;13.030;2022-10-23T14:01:53;17.90;;;4.50;;
21315;SDS011;10817;55.820;13.030;2022-10-23T14:04:22;20.15;;;3.88;;
21315;SDS011;10817;55.820;13.030;2022-10-23T14:06:50;14.15;;;4.53;;
21315;SDS011;10817;55.820;13.030;2022-10-23T14:09:23;18.90;;;4.35;;
21315;SDS011;10817;55.820;13.030;2022-10-23T14:11:50;21.70;;;4.75;;
21315;SDS011;10817;55.820;13.030;2022-10-23T14:14:17;17.27;;;5.32;;
21315;SDS011;10817;55.820;13.030;2022-10-23T14:16:45;24.38;;;5.45;;
21315;SDS011;10817;55.820;13.030;2022-10-23T14:19:14;12.52;;;4.43;;
21315;SDS011;10817;55.820;13.030;2022-10-23T14:21:40;18.98;;;5.43;;
21315;SDS011;10817;55.820;13.030;2022-10-23T14:24:08;16.75;;;4.85;;
21315;SDS011;10817;55.820;13.030;2022-10-23T14:26:35;20.50;;;5.40;;
21315;SDS011;10817;55.820;13.030;2022-10-23T14:29:02;21.45;;;5.45;;
21315;SDS011;10817;55.820;13.030;2022-10-23T14:31:29;21.60;;;6.30;;
21315;SDS011;10817;55.820;13.030;2022-10-23T14:33:57;21.33;;;5.60;;
21315;SDS011;10817;55.820;13.030;2022-10-23T14:36:27;15.43;;;4.40;;
21315;SDS011;10817;55.820;13.030;2022-10-23T14:38:54;20.52;;;4.80;;
21315;SDS011;10817;55.820;13.030;2022-10-23T14:41:22;21.00;;;9.68;;
21315;SDS011;10817;55.820;13.030;2022-10-23T14:43:51;19.17;;;6.30;;
21315;SDS011;10817;55.820;13.030;2022-10-23T14:46:20;27.17;;;4.55;;
21315;SDS011;10817;55.820;13.030;2022-10-23T14:48:47;14.13;;;3.65;;
21315;SDS011;10817;55.820;13.030;2022-10-23T14:51:16;18.75;;;4.07;;
21315;SDS011;10817;55.820;13.030;2022-10-23T14:53:46;18.73;;;4.50;;
21315;SDS011;10817;55.820;13.030;2022-10-23T14:56:14;19.95;;;6.07;;
21315;SDS011;10817;55.820;13.030;2022-10-23T14:58:41;18.20;;;6.45;;
21315;SDS011;10817;55.820;13.030;2022-10-23T15:01:08;22.23;;;5.82;;
21315;SDS011;10817;55.820;13.030;2022-10-23T15:03:36;15.63;;;4.60;;
21315;SDS011;10817;55.820;13.030;2022-10-23T15:06:04;19.73;;;4.38;;